Current Conditions
Mostly Clear
Conditions



Pressure
1020.92 (hPa) - 30.15 (inHG)
Visibility

10.0 (km) - 6.2 (miles)
Temperature
14  °C
Temperature
8  °C
Dewpoint
67  %
 Humidity
Wind Speed
8  km/h
4  kts
5  mph
2.2  m/s
Wind Direction
N
45°
E
90°
135°
S
180°
225°
W
270°
315°
 70°

East North
East
Airport Data
LTBA
İstanbul Atatürk Airport
Metar :LTBA 221950Z 07004KT CAVOK 14/08 Q1021 NOSIG RMK RWY23 07004KT
Thu 22nd April 22:50 pm
Raw Metar Info
Raw METAR is the most common format in the world for the transmission of observational weather data. It is highly standardized through the International Civil Aviation Organization (ICAO), which allows it to be understood throughout most of the world.
API Info
Data Provided by
https://www.checkwx.com/weather/

Aviation Weather providing METAR, TAF, AIRMET, SIGMET and OUTLOOK Weather Reports
© Info
CSS/SVG/PHP scripts were developed by weather34.com for use in the weather34 template © 2015-2021

Guide Info provided by Metar-Wikipedia